Time;durP1;ratioP1;P1;durP2;ratioP2;P2;SDS_P1;SDS_P2;PMS_P1;PMS_P2;Temp;Humidity;BMP_temperature;BMP_pressure;BME280_temperature;BME280_humidity;BME280_pressure;Samples;Min_cycle;Max_cycle;Signal;HPM_P1;HPM_P2
2023/03/04 00:01:36;;;;;;;39.60;17.40;;;1.30;1.00;;;;;;5131239;28;20045;-68
2023/03/04 00:04:10;;;;;;;37.72;16.67;;;1.30;1.00;;;;;;5154045;28;20038;-67
2023/03/04 00:06:41;;;;;;;30.45;16.02;;;1.20;1.00;;;;;;5145143;28;20252;-67
2023/03/04 00:09:12;;;;;;;34.13;15.65;;;1.10;1.00;;;;;;5154281;28;20049;-68
2023/03/04 00:11:45;;;;;;;31.20;15.75;;;1.00;1.00;;;;;;5154299;28;20035;-68
2023/03/04 00:14:17;;;;;;;30.30;16.23;;;0.90;1.00;;;;;;5154404;28;20035;-69
2023/03/04 00:16:52;;;;;;;34.42;15.20;;;0.80;1.00;;;;;;5121803;28;20053;-67
2023/03/04 00:19:23;;;;;;;31.80;15.05;;;0.80;65.00;;;;;;5138894;28;20053;-68
2023/03/04 00:21:57;;;;;;;31.80;15.90;;;0.80;29.60;;;;;;5153649;28;20340;-68
2023/03/04 00:24:35;;;;;;;37.00;16.10;;;0.80;42.60;;;;;;5153930;28;20192;-67
2023/03/04 00:27:09;;;;;;;35.05;15.23;;;0.70;64.00;;;;;;5154110;28;20034;-69
2023/03/04 00:29:45;;;;;;;35.92;16.08;;;0.70;19.90;;;;;;5122100;28;20334;-67
2023/03/04 00:32:17;;;;;;;32.28;14.57;;;0.70;21.20;;;;;;5153422;28;20057;-69
2023/03/04 00:34:48;;;;;;;32.78;16.10;;;0.60;44.70;;;;;;5153980;28;20308;-66
2023/03/04 00:37:24;;;;;;;35.80;16.65;;;0.60;58.20;;;;;;5136506;28;20049;-68
2023/03/04 00:39:58;;;;;;;33.88;16.85;;;0.50;96.90;;;;;;5138284;28;20050;-68
2023/03/04 00:42:29;;;;;;;37.15;16.60;;;0.50;89.10;;;;;;5154617;28;20038;-68
2023/03/04 00:45:01;;;;;;;34.72;15.45;;;0.50;55.30;;;;;;5153785;28;20351;-69
2023/03/04 00:47:32;;;;;;;34.55;15.18;;;0.40;63.20;;;;;;5152858;28;20042;-69
2023/03/04 00:50:14;;;;;;;31.33;14.88;;;0.40;80.90;;;;;;5153349;28;20047;-68
2023/03/04 00:52:50;;;;;;;33.72;15.80;;;0.30;95.80;;;;;;5153534;28;20061;-67
2023/03/04 00:55:24;;;;;;;38.47;16.75;;;0.20;99.90;;;;;;5138432;28;20053;-69
2023/03/04 00:57:56;;;;;;;25.10;12.88;;;0.30;99.90;;;;;;5137217;28;20039;-68
2023/03/04 01:03:10;;;;;;;33.40;14.18;;;0.20;99.90;;;;;;5150255;28;20742;-67
2023/03/04 01:05:44;;;;;;;36.90;14.32;;;0.20;99.90;;;;;;5131077;28;20092;-68
2023/03/04 01:08:17;;;;;;;27.90;14.43;;;0.10;99.90;;;;;;5147210;28;20046;-68
2023/03/04 01:10:48;;;;;;;28.80;14.13;;;0.20;99.90;;;;;;5149366;28;20231;-68
2023/03/04 01:13:20;;;;;;;30.45;12.85;;;0.20;99.90;;;;;;5156814;28;20050;-67
2023/03/04 01:15:51;;;;;;;28.40;13.88;;;0.20;99.90;;;;;;5143977;28;20054;-68
2023/03/04 01:18:23;;;;;;;27.73;13.30;;;0.20;99.90;;;;;;5149751;28;20234;-68
2023/03/04 01:21:00;;;;;;;26.95;13.27;;;0.40;99.90;;;;;;5132406;28;20354;-68
2023/03/04 01:23:33;;;;;;;29.48;12.20;;;0.40;75.50;;;;;;5149620;28;20042;-68
2023/03/04 01:26:09;;;;;;;26.00;11.80;;;0.40;37.30;;;;;;5149733;28;20049;-69
2023/03/04 01:28:43;;;;;;;23.80;11.73;;;0.50;35.90;;;;;;5114410;28;20043;-68
2023/03/04 01:31:14;;;;;;;20.58;10.98;;;0.50;13.90;;;;;;5133005;28;20042;-67
2023/03/04 01:33:46;;;;;;;22.10;12.50;;;0.50;24.10;;;;;;5150572;28;20510;-68
2023/03/04 01:36:17;;;;;;;20.25;11.15;;;0.50;11.50;;;;;;5134288;28;20035;-67
2023/03/04 01:38:55;;;;;;;22.42;12.00;;;0.60;1.00;;;;;;5129709;28;20064;-68
2023/03/04 01:41:28;;;;;;;22.02;10.65;;;0.60;21.00;;;;;;5130256;28;20050;-67
2023/03/04 01:44:01;;;;;;;20.67;10.88;;;0.80;1.00;;;;;;5129862;28;20047;-67
2023/03/04 01:46:43;;;;;;;21.25;11.68;;;0.80;1.00;;;;;;5141716;28;20034;-67
2023/03/04 01:49:15;;;;;;;24.05;11.38;;;1.00;1.00;;;;;;5117344;28;20065;-67
2023/03/04 01:51:52;;;;;;;22.55;10.35;;;1.00;1.00;;;;;;5150256;28;20216;-69
2023/03/04 01:54:29;;;;;;;20.95;10.43;;;1.00;1.00;;;;;;5148784;28;20046;-68
2023/03/04 01:57:32;;;;;;;25.65;11.23;;;1.10;1.00;;;;;;5116344;28;20065;-66
2023/03/04 02:00:19;;;;;;;22.35;11.35;;;1.10;1.00;;;;;;5068159;29;20052;-69
2023/03/04 02:02:56;;;;;;;24.95;12.00;;;1.10;1.00;;;;;;5036128;29;20052;-68
2023/03/04 02:05:29;;;;;;;22.40;11.05;;;1.00;1.00;;;;;;5025736;29;20048;-64
2023/03/04 02:08:07;;;;;;;25.23;10.38;;;1.00;1.00;;;;;;5023981;29;20055;-68
2023/03/04 02:10:48;;;;;;;20.25;10.40;;;1.00;1.00;;;;;;5022413;29;20055;-67
2023/03/04 02:13:21;;;;;;;17.80;10.35;;;0.90;2.70;;;;;;5042720;29;20620;-66
2023/03/04 02:15:53;;;;;;;28.42;12.88;;;0.80;25.70;;;;;;5014772;29;20058;-66
2023/03/04 02:18:24;;;;;;;29.38;12.23;;;1.00;99.90;;;;;;5024614;29;20493;-68
2023/03/04 02:21:16;;;;;;;24.85;12.68;;;1.00;90.00;;;;;;5068708;29;20039;-67
2023/03/04 02:24:18;;;;;;;25.20;11.25;;;1.10;99.90;;;;;;5036570;29;20048;-67
2023/03/04 02:26:49;;;;;;;26.83;13.70;;;1.20;93.00;;;;;;5040667;29;20055;-69
2023/03/04 02:29:24;;;;;;;34.13;13.77;;;1.20;99.90;;;;;;5049808;29;20055;-69
2023/03/04 02:31:57;;;;;;;;;;;1.30;99.90;;;;;;5037203;29;20584;-69
2023/03/04 02:34:34;;;;;;;23.98;13.35;;;1.40;99.90;;;;;;5038520;29;19919;-70
2023/03/04 02:37:08;;;;;;;31.25;15.70;;;1.60;99.90;;;;;;5081699;29;20685;-66
2023/03/04 02:39:42;;;;;;;;;;;1.70;99.90;;;;;;5083270;28;20066;-69
2023/03/04 02:42:17;;;;;;;35.75;15.68;;;1.80;99.90;;;;;;5146334;28;19922;-67
2023/03/04 02:45:00;;;;;;;37.78;17.17;;;1.90;99.90;;;;;;5114317;28;20037;-68
2023/03/04 02:47:31;;;;;;;40.88;18.67;;;1.90;99.90;;;;;;5125825;28;20065;-67
2023/03/04 02:50:04;;;;;;;42.38;18.23;;;1.90;99.90;;;;;;5127109;28;20039;-68
2023/03/04 02:52:36;;;;;;;36.90;17.45;;;1.70;99.90;;;;;;5105091;28;20043;-69
2023/03/04 02:55:10;;;;;;;33.33;16.35;;;1.60;99.90;;;;;;5111401;28;20124;-66
2023/03/04 02:57:42;;;;;;;30.02;15.68;;;1.40;99.90;;;;;;5092188;29;20039;-68
2023/03/04 03:00:16;;;;;;;26.60;13.68;;;1.20;99.90;;;;;;5120473;28;20053;-69
2023/03/04 03:02:48;;;;;;;32.35;15.80;;;1.00;99.90;;;;;;5112459;28;20054;-69
2023/03/04 03:05:22;;;;;;;34.50;17.05;;;0.90;99.90;;;;;;5078687;28;20076;-69
2023/03/04 03:07:56;;;;;;;31.15;14.20;;;0.90;99.90;;;;;;5118698;28;20034;-70
2023/03/04 03:10:30;;;;;;;33.38;16.17;;;0.70;99.90;;;;;;5113085;29;20038;-67
2023/03/04 03:13:01;;;;;;;40.75;17.27;;;0.70;99.90;;;;;;5104382;28;20053;-70
2023/03/04 03:15:40;;;;;;;37.92;16.42;;;0.70;99.90;;;;;;5111904;28;20054;-68
2023/03/04 03:18:12;;;;;;;39.85;17.10;;;0.60;99.90;;;;;;5117123;28;20061;-67
2023/03/04 03:20:46;;;;;;;33.28;16.48;;;0.50;99.90;;;;;;5099729;28;20050;-68
2023/03/04 03:23:19;;;;;;;39.17;18.08;;;0.30;99.90;;;;;;5116364;28;20134;-70
2023/03/04 03:25:51;;;;;;;35.47;17.48;;;0.40;99.90;;;;;;5116387;28;20057;-68
2023/03/04 03:28:22;;;;;;;36.80;17.65;;;0.40;99.90;;;;;;5100052;28;20042;-68
2023/03/04 03:30:54;;;;;;;32.25;17.35;;;0.40;99.90;;;;;;5096488;28;20061;-66
2023/03/04 03:33:26;;;;;;;43.40;18.10;;;0.50;99.90;;;;;;5096203;29;20043;-69
2023/03/04 03:35:58;;;;;;;44.05;17.65;;;0.60;99.90;;;;;;5143913;28;20452;-69
2023/03/04 03:38:30;;;;;;;37.20;17.88;;;0.60;99.90;;;;;;5133213;28;20106;-66
2023/03/04 03:41:01;;;;;;;42.03;18.05;;;0.60;99.90;;;;;;5116979;28;20042;-69
2023/03/04 03:43:33;;;;;;;45.25;19.48;;;0.60;99.90;;;;;;5130474;28;20046;-67
2023/03/04 03:46:04;;;;;;;41.85;17.70;;;0.60;99.90;;;;;;5113409;28;20035;-70
2023/03/04 03:48:36;;;;;;;44.47;19.33;;;0.50;99.90;;;;;;5098232;28;20051;-68
2023/03/04 03:51:07;;;;;;;47.90;20.67;;;0.40;99.90;;;;;;5119801;28;20239;-69
2023/03/04 03:53:41;;;;;;;41.28;18.65;;;0.30;99.90;;;;;;5129407;28;20039;-70
2023/03/04 03:56:17;;;;;;;40.42;21.15;;;0.40;99.90;;;;;;5124412;28;20514;-70
2023/03/04 03:58:52;;;;;;;45.80;19.15;;;0.40;99.90;;;;;;5119772;28;20047;-68
2023/03/04 04:01:23;;;;;;;44.15;19.17;;;0.60;99.90;;;;;;5118241;28;20062;-70
2023/03/04 04:03:55;;;;;;;48.03;19.23;;;0.60;99.90;;;;;;5097442;29;20047;-68
2023/03/04 04:06:29;;;;;;;46.80;18.70;;;0.80;99.90;;;;;;5089732;28;20060;-68
2023/03/04 04:09:00;;;;;;;43.45;20.35;;;0.80;99.90;;;;;;5131773;28;20046;-69
2023/03/04 04:11:33;;;;;;;46.03;17.75;;;0.90;99.90;;;;;;5130586;28;20057;-68
2023/03/04 04:14:04;;;;;;;45.88;20.00;;;0.80;99.90;;;;;;5100235;28;20058;-68
2023/03/04 04:16:38;;;;;;;48.63;20.45;;;0.80;99.90;;;;;;5131540;28;20045;-69
2023/03/04 04:19:18;;;;;;;39.08;16.45;;;0.60;99.90;;;;;;5129320;28;20180;-68
2023/03/04 04:21:50;;;;;;;43.67;21.00;;;0.60;99.90;;;;;;5128853;28;20050;-65
2023/03/04 04:24:21;;;;;;;40.83;18.17;;;0.60;99.90;;;;;;5115292;28;20043;-69
2023/03/04 04:26:58;;;;;;;40.20;18.55;;;0.60;99.90;;;;;;5132193;28;20214;-68
2023/03/04 04:29:31;;;;;;;44.72;18.67;;;0.50;99.90;;;;;;5112958;28;20047;-68
2023/03/04 04:32:03;;;;;;;54.05;21.73;;;0.60;99.90;;;;;;5124618;28;20041;-67
2023/03/04 04:34:37;;;;;;;46.03;21.48;;;0.80;99.90;;;;;;5115737;28;20058;-68
2023/03/04 04:37:09;;;;;;;44.90;20.58;;;0.90;99.90;;;;;;5114961;28;20064;-68
2023/03/04 04:39:41;;;;;;;49.88;20.65;;;0.80;99.90;;;;;;5133726;28;20041;-69
2023/03/04 04:42:13;;;;;;;47.28;20.80;;;0.90;99.90;;;;;;5132096;28;20035;-68
2023/03/04 04:44:49;;;;;;;47.17;22.13;;;0.90;99.90;;;;;;5115135;28;20381;-69
2023/03/04 04:47:20;;;;;;;50.33;21.88;;;0.90;99.90;;;;;;5105877;29;20051;-69
2023/03/04 04:49:52;;;;;;;48.33;22.52;;;1.10;99.90;;;;;;5097271;28;20042;-68
2023/03/04 04:52:30;;;;;;;50.92;23.77;;;1.00;99.90;;;;;;5108571;28;20427;-68
2023/03/04 04:55:02;;;;;;;55.58;23.70;;;1.30;99.90;;;;;;5103169;28;20239;-68
2023/03/04 04:57:34;;;;;;;52.95;23.52;;;1.70;99.90;;;;;;5100933;28;20488;-70
2023/03/04 05:00:12;;;;;;;56.63;23.73;;;1.70;99.90;;;;;;5122675;28;20472;-69
2023/03/04 05:02:48;;;;;;;62.08;24.30;;;1.70;99.90;;;;;;5142584;28;20037;-69
2023/03/04 05:05:27;;;;;;;61.10;26.30;;;2.50;99.90;;;;;;5095781;28;20047;-70
2023/03/04 05:07:58;;;;;;;63.70;26.95;;;2.80;99.90;;;;;;5119733;28;20158;-69
2023/03/04 05:10:32;;;;;;;67.25;26.52;;;3.20;99.90;;;;;;5095075;28;20047;-68
2023/03/04 05:13:03;;;;;;;55.83;23.08;;;3.20;99.90;;;;;;5116166;28;20043;-69
2023/03/04 05:15:37;;;;;;;52.10;24.08;;;3.00;99.90;;;;;;5109955;28;20271;-70
2023/03/04 05:18:12;;;;;;;50.33;23.13;;;3.80;99.90;;;;;;5130775;28;20461;-66
2023/03/04 05:20:43;;;;;;;48.22;22.38;;;4.10;99.90;;;;;;5097363;28;20049;-68
2023/03/04 05:23:15;;;;;;;53.85;23.58;;;3.90;99.90;;;;;;5113950;28;20050;-69
2023/03/04 05:25:49;;;;;;;48.85;21.98;;;3.90;99.90;;;;;;5113654;28;20051;-68
2023/03/04 05:28:21;;;;;;;52.85;22.58;;;4.00;99.90;;;;;;5130979;28;20031;-69
2023/03/04 05:31:00;;;;;;;48.30;23.67;;;4.00;99.90;;;;;;5103007;28;20061;-69
2023/03/04 05:33:38;;;;;;;38.38;18.90;;;3.80;99.90;;;;;;5128316;28;20042;-69
2023/03/04 05:36:12;;;;;;;49.88;22.85;;;4.00;99.90;;;;;;5124515;28;20042;-72
2023/03/04 05:38:46;;;;;;;51.50;23.25;;;4.00;99.90;;;;;;5119927;28;20051;-70
2023/03/04 05:41:21;;;;;;;41.15;20.40;;;4.00;99.90;;;;;;5101403;28;20042;-70
2023/03/04 05:43:53;;;;;;;40.50;18.80;;;4.30;99.90;;;;;;5117396;28;20027;-69
2023/03/04 05:46:25;;;;;;;47.88;20.92;;;4.60;99.90;;;;;;5116945;28;20047;-69
2023/03/04 05:49:02;;;;;;;46.17;20.15;;;5.00;99.90;;;;;;5123225;28;20046;-69
2023/03/04 05:51:34;;;;;;;43.00;21.02;;;5.00;99.90;;;;;;5121492;28;20047;-70
2023/03/04 05:54:09;;;;;;;42.13;20.48;;;5.10;99.90;;;;;;5123947;28;20027;-69
2023/03/04 05:56:46;;;;;;;39.63;18.55;;;5.20;99.90;;;;;;5122832;28;20042;-69
2023/03/04 05:59:19;;;;;;;40.53;19.80;;;5.30;99.90;;;;;;5121158;28;20035;-69
2023/03/04 06:01:51;;;;;;;39.78;19.50;;;5.50;99.90;;;;;;5118894;28;20026;-69
2023/03/04 06:04:23;;;;;;;41.35;20.35;;;5.60;68.30;;;;;;5081947;28;20039;-67
2023/03/04 06:06:54;;;;;;;44.08;21.02;;;5.80;49.40;;;;;;5119136;28;20043;-70
2023/03/04 06:09:26;;;;;;;41.95;20.73;;;5.80;48.60;;;;;;5118590;28;20045;-69
2023/03/04 06:11:57;;;;;;;47.25;20.55;;;5.70;74.30;;;;;;5119126;28;20050;-69
2023/03/04 06:14:32;;;;;;;45.55;20.27;;;5.80;58.10;;;;;;5120239;28;20319;-69
2023/03/04 06:17:09;;;;;;;42.75;19.35;;;5.90;32.50;;;;;;5097665;28;20049;-68
2023/03/04 06:19:44;;;;;;;41.38;19.77;;;6.10;1.00;;;;;;5118691;28;20037;-68
2023/03/04 06:22:18;;;;;;;42.53;19.70;;;6.10;14.70;;;;;;5106078;28;20055;-72
2023/03/04 06:24:49;;;;;;;40.42;20.33;;;6.10;1.00;;;;;;5108446;28;20047;-69
2023/03/04 06:27:21;;;;;;;38.78;19.88;;;6.20;1.00;;;;;;5125174;28;20051;-69
2023/03/04 06:29:53;;;;;;;35.80;19.55;;;6.20;1.00;;;;;;5117468;28;20023;-69
2023/03/04 06:32:25;;;;;;;35.83;16.58;;;6.30;1.00;;;;;;5117588;28;20038;-69
2023/03/04 06:34:58;;;;;;;44.63;20.17;;;6.40;1.00;;;;;;5121156;28;20054;-69
2023/03/04 06:37:29;;;;;;;40.03;17.70;;;6.50;99.90;;;;;;5122512;28;20472;-70
2023/03/04 06:40:02;;;;;;;35.10;18.00;;;6.50;98.50;;;;;;5121812;28;20035;-68
2023/03/04 06:42:34;;;;;;;39.05;18.15;;;6.60;96.20;;;;;;5105331;28;20042;-69
2023/03/04 06:45:07;;;;;;;41.28;18.65;;;6.70;99.90;;;;;;5135788;28;20594;-70
2023/03/04 06:47:44;;;;;;;35.70;17.80;;;6.80;99.90;;;;;;5119231;28;20444;-69
2023/03/04 06:50:15;;;;;;;41.42;18.20;;;6.90;99.90;;;;;;5115336;28;20038;-68
2023/03/04 06:52:48;;;;;;;35.60;18.42;;;7.00;99.90;;;;;;5125932;28;20035;-68
2023/03/04 06:55:22;;;;;;;41.00;19.35;;;7.10;99.90;;;;;;5138929;28;20031;-70
2023/03/04 06:57:54;;;;;;;37.00;19.00;;;7.20;99.90;;;;;;5112626;28;21315;-69
2023/03/04 07:00:31;;;;;;;45.33;21.88;;;7.20;99.90;;;;;;5107944;28;20607;-68
2023/03/04 07:03:04;;;;;;;40.72;20.98;;;7.20;99.90;;;;;;5103770;28;20051;-68
2023/03/04 07:05:41;;;;;;;39.45;19.23;;;7.30;99.90;;;;;;5108320;28;20534;-69
2023/03/04 07:08:12;;;;;;;35.00;17.65;;;7.40;99.90;;;;;;5111912;28;20587;-69
2023/03/04 07:10:44;;;;;;;35.28;18.15;;;7.50;99.90;;;;;;5124340;28;20039;-68
2023/03/04 07:13:15;;;;;;;40.72;19.77;;;7.60;99.90;;;;;;5109547;28;20047;-69
2023/03/04 07:15:55;;;;;;;40.80;19.90;;;7.60;99.90;;;;;;5120078;28;20033;-68
2023/03/04 07:18:33;;;;;;;31.48;16.25;;;7.60;99.90;;;;;;5122188;28;20214;-70
2023/03/04 07:21:08;;;;;;;38.10;19.92;;;7.70;99.90;;;;;;5108168;28;20061;-70
2023/03/04 07:23:43;;;;;;;35.60;17.23;;;7.80;99.90;;;;;;5129722;28;20070;-67
2023/03/04 07:26:16;;;;;;;39.08;19.23;;;7.80;99.90;;;;;;5099708;28;20648;-66
2023/03/04 07:28:53;;;;;;;38.08;19.50;;;7.90;99.90;;;;;;5099065;28;20082;-70
2023/03/04 07:31:30;;;;;;;40.80;18.85;;;7.90;99.90;;;;;;5125908;28;20045;-70
2023/03/04 07:34:13;;;;;;;31.02;17.40;;;8.00;99.90;;;;;;5100121;28;20047;-67
2023/03/04 07:36:47;;;;;;;41.92;18.67;;;8.00;99.90;;;;;;5110676;28;20251;-69
2023/03/04 07:39:24;;;;;;;37.47;17.92;;;8.10;99.90;;;;;;5115005;28;20043;-69
2023/03/04 07:41:55;;;;;;;40.10;18.55;;;8.20;99.90;;;;;;5111926;28;20051;-70
2023/03/04 07:44:28;;;;;;;42.38;19.83;;;8.30;99.90;;;;;;5130087;28;20030;-68
2023/03/04 07:47:01;;;;;;;40.50;19.80;;;8.40;99.90;;;;;;5111181;28;20153;-70
2023/03/04 07:49:33;;;;;;;35.58;20.30;;;8.40;99.90;;;;;;5109712;29;20583;-67
2023/03/04 07:52:13;;;;;;;38.33;18.20;;;8.40;99.90;;;;;;5126258;28;20058;-68
2023/03/04 07:54:44;;;;;;;44.00;20.58;;;8.60;99.90;;;;;;5129023;28;20035;-64
2023/03/04 07:57:15;;;;;;;40.75;19.80;;;8.60;99.90;;;;;;5111348;28;20047;-67
2023/03/04 07:59:47;;;;;;;34.97;18.58;;;8.70;99.90;;;;;;5115276;28;20608;-69
2023/03/04 08:02:21;;;;;;;37.53;18.38;;;8.70;99.90;;;;;;5128230;28;20045;-70
2023/03/04 08:04:57;;;;;;;43.70;18.38;;;8.80;99.90;;;;;;5104415;28;20051;-68
2023/03/04 08:07:30;;;;;;;37.25;18.20;;;8.80;99.90;;;;;;5113345;28;20512;-68
2023/03/04 08:10:06;;;;;;;39.08;19.25;;;8.80;99.90;;;;;;5114795;28;20041;-70
2023/03/04 08:12:38;;;;;;;36.72;18.15;;;8.80;99.90;;;;;;5136211;28;20038;-65
2023/03/04 08:15:13;;;;;;;33.88;17.20;;;8.80;99.90;;;;;;5097362;28;20049;-70
2023/03/04 08:17:44;;;;;;;36.03;17.95;;;8.80;99.90;;;;;;5131202;28;20116;-68
2023/03/04 08:20:16;;;;;;;37.38;17.52;;;8.80;99.90;;;;;;5131306;28;20054;-68
2023/03/04 08:22:47;;;;;;;37.22;17.92;;;8.80;99.90;;;;;;5081253;28;20076;-69
2023/03/04 08:25:19;;;;;;;37.28;19.17;;;8.80;99.90;;;;;;5129569;28;20373;-69
2023/03/04 08:27:53;;;;;;;33.00;17.45;;;8.80;99.90;;;;;;5127604;28;20483;-69
2023/03/04 08:30:24;;;;;;;36.63;17.48;;;8.90;99.90;;;;;;5126783;28;20145;-69
2023/03/04 08:33:01;;;;;;;37.28;18.40;;;9.10;99.90;;;;;;5129503;28;20538;-66
2023/03/04 08:35:39;;;;;;;33.78;17.20;;;9.10;99.90;;;;;;5128578;28;20255;-69
2023/03/04 08:38:12;;;;;;;30.80;16.05;;;9.00;99.90;;;;;;5097509;28;20262;-69
2023/03/04 08:40:44;;;;;;;33.33;16.45;;;9.00;99.90;;;;;;5097949;28;20044;-66
2023/03/04 08:43:15;;;;;;;35.58;16.92;;;9.30;99.90;;;;;;5127978;28;20030;-67
2023/03/04 08:45:47;;;;;;;29.02;14.60;;;9.30;99.90;;;;;;5140450;28;20031;-66
2023/03/04 08:48:19;;;;;;;31.58;14.88;;;9.40;99.90;;;;;;5129848;28;20342;-68
2023/03/04 08:50:53;;;;;;;29.80;14.65;;;9.40;99.90;;;;;;5096966;28;20042;-70
2023/03/04 08:53:28;;;;;;;32.00;14.93;;;9.60;99.90;;;;;;5113337;28;20035;-66
2023/03/04 08:56:02;;;;;;;;;;;9.50;99.90;;;;;;5130241;28;20061;-70
2023/03/04 08:58:39;;;;;;;26.33;13.38;;;9.50;99.90;;;;;;5112567;28;19924;-68
2023/03/04 09:01:15;;;;;;;30.10;14.07;;;9.50;99.90;;;;;;5118506;28;20363;-68
2023/03/04 09:03:49;;;;;;;25.98;13.82;;;9.50;99.90;;;;;;5112441;28;20061;-69
2023/03/04 09:06:23;;;;;;;29.38;15.90;;;9.40;99.90;;;;;;5118940;28;20699;-64
2023/03/04 09:08:56;;;;;;;27.45;14.27;;;9.60;99.90;;;;;;5109245;28;20047;-68
2023/03/04 09:11:32;;;;;;;27.10;14.40;;;9.70;99.90;;;;;;5112964;28;20045;-69
2023/03/04 09:14:03;;;;;;;29.08;13.88;;;9.90;99.90;;;;;;5129464;28;20046;-71
2023/03/04 09:16:35;;;;;;;33.78;15.30;;;9.90;99.90;;;;;;5142591;28;20041;-68
2023/03/04 09:19:08;;;;;;;30.17;14.60;;;10.00;99.90;;;;;;5129307;28;20039;-67
2023/03/04 09:21:40;;;;;;;23.80;12.63;;;10.20;99.90;;;;;;5128692;28;20377;-66
2023/03/04 09:24:11;;;;;;;27.35;14.13;;;10.20;99.90;;;;;;5113452;28;20050;-70
2023/03/04 09:26:44;;;;;;;30.38;15.85;;;10.40;99.90;;;;;;5129746;28;20030;-66
2023/03/04 09:29:21;;;;;;;29.13;14.15;;;10.30;99.90;;;;;;5113293;28;20039;-66
2023/03/04 09:31:53;;;;;;;29.45;15.30;;;9.90;99.90;;;;;;5124041;28;20038;-66
2023/03/04 09:34:26;;;;;;;26.98;14.85;;;10.10;99.90;;;;;;5091627;28;20279;-67
2023/03/04 09:36:57;;;;;;;30.88;17.10;;;10.20;99.90;;;;;;5119059;28;20058;-69
2023/03/04 09:39:30;;;;;;;28.52;16.23;;;9.70;99.90;;;;;;5111433;28;20240;-68
2023/03/04 09:42:08;;;;;;;27.58;16.02;;;10.00;99.90;;;;;;5113697;28;20324;-67
2023/03/04 09:44:45;;;;;;;38.15;19.23;;;9.90;99.90;;;;;;5113615;28;20035;-68
2023/03/04 09:47:22;;;;;;;27.25;15.15;;;9.90;99.90;;;;;;5126103;28;20174;-67
2023/03/04 09:50:00;;;;;;;37.40;18.35;;;9.90;99.90;;;;;;5128357;28;20049;-69
2023/03/04 09:53:01;;;;;;;26.35;15.98;;;9.90;99.90;;;;;;5111835;28;20482;-69
2023/03/04 09:55:43;;;;;;;27.50;13.60;;;10.00;99.90;;;;;;5122887;28;20352;-69
2023/03/04 09:58:43;;;;;;;31.77;17.02;;;10.00;99.90;;;;;;5128895;28;20048;-65
2023/03/04 10:01:55;;;;;;;32.05;17.52;;;10.00;99.90;;;;;;5092857;28;20054;-68
2023/03/04 10:04:45;;;;;;;28.45;15.32;;;10.20;99.90;;;;;;5083015;28;20050;-67
2023/03/04 10:07:32;;;;;;;33.70;16.10;;;10.30;99.90;;;;;;5071464;29;20050;-67
2023/03/04 10:10:12;;;;;;;25.77;13.65;;;10.20;99.90;;;;;;5059584;29;20051;-67
2023/03/04 10:12:54;;;;;;;32.97;16.10;;;10.30;99.90;;;;;;5107388;29;20043;-69
2023/03/04 10:15:47;;;;;;;23.00;12.75;;;10.30;99.90;;;;;;5083783;29;20055;-68
2023/03/04 10:18:33;;;;;;;30.20;13.65;;;10.50;99.90;;;;;;5092758;29;20162;-69
2023/03/04 10:21:32;;;;;;;29.95;14.93;;;10.40;99.90;;;;;;5094623;29;20410;-70
2023/03/04 10:24:17;;;;;;;23.83;14.65;;;10.70;99.90;;;;;;5079874;29;20050;-69
2023/03/04 10:27:00;;;;;;;31.30;14.60;;;10.50;99.90;;;;;;5073430;29;20054;-67
2023/03/04 10:29:38;;;;;;;28.55;15.30;;;10.80;99.90;;;;;;5109968;29;20205;-66
2023/03/04 10:32:21;;;;;;;28.83;15.27;;;11.00;99.90;;;;;;5057693;29;20048;-68
2023/03/04 10:34:55;;;;;;;25.30;14.23;;;11.40;99.90;;;;;;5078702;29;20228;-66
2023/03/04 10:37:45;;;;;;;28.98;15.23;;;11.40;99.90;;;;;;5062468;29;20243;-67
2023/03/04 10:40:24;;;;;;;27.13;14.10;;;11.20;99.90;;;;;;5095067;28;20042;-68
2023/03/04 10:43:07;;;;;;;26.08;13.45;;;11.20;99.90;;;;;;5112659;28;20251;-66
2023/03/04 10:45:39;;;;;;;25.90;14.20;;;11.90;99.90;;;;;;5111814;28;20042;-68
2023/03/04 10:48:28;;;;;;;28.23;14.93;;;11.90;99.90;;;;;;5127999;28;20346;-68
2023/03/04 10:51:33;;;;;;;27.65;13.75;;;11.80;99.90;;;;;;5128170;28;20325;-66
2023/03/04 10:54:33;;;;;;;25.63;12.82;;;11.90;99.90;;;;;;5055028;29;20434;-66
2023/03/04 10:57:18;;;;;;;20.00;10.95;;;11.60;99.90;;;;;;5065891;29;20048;-66
2023/03/04 11:00:22;;;;;;;22.80;13.02;;;11.40;99.90;;;;;;5053173;29;20040;-67
2023/03/04 11:03:33;;;;;;;25.67;12.32;;;11.40;99.90;;;;;;5068576;29;20071;-67
2023/03/04 11:06:20;;;;;;;21.65;13.18;;;11.40;99.90;;;;;;5026534;29;20237;-68
2023/03/04 11:08:59;;;;;;;18.27;10.52;;;11.40;99.90;;;;;;5052294;29;20032;-68
2023/03/04 11:11:41;;;;;;;22.23;12.15;;;11.60;99.90;;;;;;5062525;29;20050;-68
2023/03/04 11:14:27;;;;;;;21.00;11.75;;;11.50;99.90;;;;;;5055393;29;20294;-66
2023/03/04 11:17:02;;;;;;;21.73;11.52;;;11.80;99.90;;;;;;5037886;29;20042;-68
2023/03/04 11:19:47;;;;;;;18.27;11.10;;;12.00;99.90;;;;;;5054444;29;20055;-68
2023/03/04 11:22:22;;;;;;;23.42;13.23;;;12.20;99.90;;;;;;5040278;29;20059;-68
2023/03/04 11:25:13;;;;;;;24.92;12.95;;;12.00;99.90;;;;;;5054729;29;20043;-69
2023/03/04 11:28:11;;;;;;;21.08;12.10;;;12.10;99.90;;;;;;5052976;29;20044;-68
2023/03/04 11:31:16;;;;;;;19.08;10.65;;;12.10;99.90;;;;;;5103329;28;20059;-70
2023/03/04 11:34:02;;;;;;;22.35;10.52;;;12.30;99.90;;;;;;5097397;28;20043;-70
2023/03/04 11:36:49;;;;;;;18.60;9.85;;;12.20;99.90;;;;;;5113231;28;20038;-68
2023/03/04 11:39:47;;;;;;;19.25;10.82;;;12.20;99.90;;;;;;5120012;28;20047;-71
2023/03/04 11:42:42;;;;;;;16.35;10.88;;;12.20;99.90;;;;;;5093889;28;20267;-70
2023/03/04 11:45:24;;;;;;;18.25;10.80;;;13.30;99.90;;;;;;5122951;28;20336;-68
2023/03/04 11:48:10;;;;;;;24.20;10.20;;;13.20;99.90;;;;;;5132567;28;20504;-69
2023/03/04 11:50:53;;;;;;;17.85;10.02;;;13.20;99.90;;;;;;5115902;28;20047;-67
2023/03/04 11:53:35;;;;;;;19.08;10.07;;;13.10;99.90;;;;;;5115024;28;20355;-69
2023/03/04 11:56:30;;;;;;;14.65;9.32;;;13.30;99.90;;;;;;5132450;28;20039;-68
2023/03/04 11:59:25;;;;;;;19.48;10.70;;;13.30;99.90;;;;;;5099390;28;20046;-69
2023/03/04 12:02:19;;;;;;;18.88;10.73;;;13.20;99.90;;;;;;5127190;28;20045;-68
2023/03/04 12:05:12;;;;;;;20.13;10.05;;;13.60;99.90;;;;;;5089895;28;20070;-68
2023/03/04 12:08:19;;;;;;;16.27;10.43;;;14.20;99.90;;;;;;5126018;28;20049;-68
2023/03/04 12:11:00;;;;;;;17.48;10.43;;;13.80;99.90;;;;;;5131736;28;20045;-71
2023/03/04 12:13:45;;;;;;;18.00;9.05;;;13.50;99.90;;;;;;5115324;28;20038;-66
2023/03/04 12:16:33;;;;;;;16.92;10.25;;;13.40;99.90;;;;;;5116748;28;20027;-68
2023/03/04 12:19:39;;;;;;;16.80;9.77;;;13.10;99.90;;;;;;5098292;28;20057;-67
2023/03/04 12:22:22;;;;;;;16.05;9.07;;;13.10;99.90;;;;;;5113828;29;20033;-68
2023/03/04 12:25:37;;;;;;;18.13;9.43;;;13.10;99.90;;;;;;5101872;28;20428;-67
2023/03/04 12:28:18;;;;;;;20.00;10.70;;;13.20;99.90;;;;;;5129097;28;20524;-68
2023/03/04 12:31:24;;;;;;;18.73;10.43;;;13.50;99.90;;;;;;5092625;28;20046;-69
2023/03/04 12:34:21;;;;;;;17.33;10.40;;;14.10;99.90;;;;;;5053746;29;20051;-69
2023/03/04 12:37:27;;;;;;;16.67;9.75;;;13.70;99.90;;;;;;5071577;29;20032;-69
2023/03/04 12:40:33;;;;;;;17.73;9.30;;;13.10;99.90;;;;;;5036252;29;20045;-68
2023/03/04 12:43:50;;;;;;;16.85;9.38;;;12.90;99.90;;;;;;5035940;29;20538;-69
2023/03/04 12:46:38;;;;;;;16.92;10.77;;;13.50;99.90;;;;;;5060745;29;20044;-70
2023/03/04 12:49:57;;;;;;;16.38;10.25;;;13.20;99.90;;;;;;5058295;29;20479;-65
2023/03/04 12:52:48;;;;;;;18.38;10.05;;;13.80;99.90;;;;;;5069723;29;20055;-67
2023/03/04 12:55:32;;;;;;;15.25;9.25;;;15.20;99.90;;;;;;5072525;29;20050;-68
2023/03/04 12:58:14;;;;;;;20.25;10.75;;;14.30;99.90;;;;;;5066282;29;20048;-66
2023/03/04 13:00:56;;;;;;;14.95;8.68;;;14.10;99.90;;;;;;5036285;29;20044;-67
2023/03/04 13:03:46;;;;;;;21.45;9.40;;;14.30;99.90;;;;;;5039015;29;20052;-68
2023/03/04 13:06:45;;;;;;;17.17;9.32;;;14.10;99.90;;;;;;5070978;29;20048;-67
2023/03/04 13:09:28;;;;;;;16.98;9.95;;;13.60;99.90;;;;;;5054502;29;20079;-71
2023/03/04 13:12:24;;;;;;;15.82;9.23;;;14.00;99.90;;;;;;5114018;28;20073;-69
2023/03/04 13:15:17;;;;;;;18.20;9.63;;;14.00;99.90;;;;;;5130562;28;20050;-66
2023/03/04 13:18:29;;;;;;;18.70;10.15;;;13.70;99.90;;;;;;5146239;28;20035;-68
2023/03/04 13:21:27;;;;;;;19.20;10.40;;;13.90;99.90;;;;;;5113931;28;20097;-69
2023/03/04 13:24:44;;;;;;;22.00;10.40;;;13.80;99.90;;;;;;5112771;28;20046;-67
2023/03/04 13:27:49;;;;;;;18.30;11.00;;;13.90;99.90;;;;;;5096284;28;20676;-69
2023/03/04 13:31:10;;;;;;;16.58;9.90;;;14.20;99.90;;;;;;5127070;28;20061;-68
2023/03/04 13:33:46;;;;;;;15.07;8.82;;;14.50;99.90;;;;;;5109103;28;20047;-70
2023/03/04 13:36:53;;;;;;;19.77;9.27;;;14.30;99.90;;;;;;5114422;28;20057;-68